sensor_id;sensor_type;location;lat;lon;timestamp;P1;durP1;ratioP1;P2;durP2;ratioP2
12228;SDS011;6177;52.402;9.800;2024-03-29T00:02:06;1.13;;;0.63;;
12228;SDS011;6177;52.402;9.800;2024-03-29T00:04:31;1.03;;;0.40;;
12228;SDS011;6177;52.402;9.800;2024-03-29T00:06:57;0.60;;;0.30;;
12228;SDS011;6177;52.402;9.800;2024-03-29T00:09:22;0.63;;;0.43;;
12228;SDS011;6177;52.402;9.800;2024-03-29T00:11:48;0.73;;;0.60;;
12228;SDS011;6177;52.402;9.800;2024-03-29T00:14:13;1.40;;;0.50;;
12228;SDS011;6177;52.402;9.800;2024-03-29T00:16:39;1.43;;;0.50;;
12228;SDS011;6177;52.402;9.800;2024-03-29T00:19:05;1.03;;;0.50;;
12228;SDS011;6177;52.402;9.800;2024-03-29T00:21:30;0.97;;;0.50;;
12228;SDS011;6177;52.402;9.800;2024-03-29T00:23:56;1.33;;;0.60;;
12228;SDS011;6177;52.402;9.800;2024-03-29T00:26:21;1.13;;;0.50;;
12228;SDS011;6177;52.402;9.800;2024-03-29T00:28:47;0.73;;;0.40;;
12228;SDS011;6177;52.402;9.800;2024-03-29T00:31:12;0.50;;;0.50;;
12228;SDS011;6177;52.402;9.800;2024-03-29T00:33:38;0.80;;;0.50;;
12228;SDS011;6177;52.402;9.800;2024-03-29T00:36:03;3.23;;;0.60;;
12228;SDS011;6177;52.402;9.800;2024-03-29T00:38:29;0.63;;;0.43;;
12228;SDS011;6177;52.402;9.800;2024-03-29T00:40:54;1.23;;;0.50;;
12228;SDS011;6177;52.402;9.800;2024-03-29T00:43:20;0.97;;;0.60;;
12228;SDS011;6177;52.402;9.800;2024-03-29T00:45:46;0.43;;;0.43;;
12228;SDS011;6177;52.402;9.800;2024-03-29T00:48:11;0.73;;;0.50;;
12228;SDS011;6177;52.402;9.800;2024-03-29T00:50:40;0.73;;;0.70;;
12228;SDS011;6177;52.402;9.800;2024-03-29T00:53:05;1.03;;;0.53;;
12228;SDS011;6177;52.402;9.800;2024-03-29T00:55:31;0.93;;;0.60;;
12228;SDS011;6177;52.402;9.800;2024-03-29T00:57:56;1.57;;;0.40;;
12228;SDS011;6177;52.402;9.800;2024-03-29T01:00:22;0.53;;;0.53;;
12228;SDS011;6177;52.402;9.800;2024-03-29T01:02:47;1.70;;;0.60;;
12228;SDS011;6177;52.402;9.800;2024-03-29T01:05:13;2.43;;;0.60;;
12228;SDS011;6177;52.402;9.800;2024-03-29T01:07:41;0.40;;;0.40;;
12228;SDS011;6177;52.402;9.800;2024-03-29T01:10:07;2.57;;;0.60;;
12228;SDS011;6177;52.402;9.800;2024-03-29T01:12:34;0.60;;;0.40;;
12228;SDS011;6177;52.402;9.800;2024-03-29T01:15:04;0.87;;;0.50;;
12228;SDS011;6177;52.402;9.800;2024-03-29T01:17:30;2.13;;;0.47;;
12228;SDS011;6177;52.402;9.800;2024-03-29T01:19:56;0.83;;;0.80;;
12228;SDS011;6177;52.402;9.800;2024-03-29T01:22:21;1.17;;;0.50;;
12228;SDS011;6177;52.402;9.800;2024-03-29T01:24:47;2.83;;;0.70;;
12228;SDS011;6177;52.402;9.800;2024-03-29T01:27:12;0.60;;;0.50;;
12228;SDS011;6177;52.402;9.800;2024-03-29T01:29:38;1.07;;;0.60;;
12228;SDS011;6177;52.402;9.800;2024-03-29T01:32:03;0.63;;;0.50;;
12228;SDS011;6177;52.402;9.800;2024-03-29T01:34:29;0.60;;;0.60;;
12228;SDS011;6177;52.402;9.800;2024-03-29T01:36:55;2.53;;;0.40;;
12228;SDS011;6177;52.402;9.800;2024-03-29T01:39:21;1.07;;;0.57;;
12228;SDS011;6177;52.402;9.800;2024-03-29T01:41:51;0.70;;;0.60;;
12228;SDS011;6177;52.402;9.800;2024-03-29T01:44:17;1.90;;;0.77;;
12228;SDS011;6177;52.402;9.800;2024-03-29T01:46:43;1.00;;;0.50;;
12228;SDS011;6177;52.402;9.800;2024-03-29T01:49:10;1.50;;;0.50;;
12228;SDS011;6177;52.402;9.800;2024-03-29T01:51:36;1.80;;;0.70;;
12228;SDS011;6177;52.402;9.800;2024-03-29T01:54:04;0.60;;;0.50;;
12228;SDS011;6177;52.402;9.800;2024-03-29T01:56:30;1.70;;;0.50;;
12228;SDS011;6177;52.402;9.800;2024-03-29T01:58:56;1.23;;;0.70;;
12228;SDS011;6177;52.402;9.800;2024-03-29T02:01:23;1.80;;;0.47;;
12228;SDS011;6177;52.402;9.800;2024-03-29T02:03:51;1.37;;;0.50;;
12228;SDS011;6177;52.402;9.800;2024-03-29T02:06:16;1.00;;;0.30;;
12228;SDS011;6177;52.402;9.800;2024-03-29T02:08:42;0.83;;;0.30;;
12228;SDS011;6177;52.402;9.800;2024-03-29T02:11:07;1.43;;;0.50;;
12228;SDS011;6177;52.402;9.800;2024-03-29T02:13:33;1.77;;;0.50;;
12228;SDS011;6177;52.402;9.800;2024-03-29T02:15:59;0.63;;;0.63;;
12228;SDS011;6177;52.402;9.800;2024-03-29T02:18:24;1.13;;;0.67;;
12228;SDS011;6177;52.402;9.800;2024-03-29T02:20:50;1.33;;;0.67;;
12228;SDS011;6177;52.402;9.800;2024-03-29T02:23:17;1.80;;;0.50;;
12228;SDS011;6177;52.402;9.800;2024-03-29T02:25:46;0.83;;;0.50;;
12228;SDS011;6177;52.402;9.800;2024-03-29T02:28:12;2.70;;;0.50;;
12228;SDS011;6177;52.402;9.800;2024-03-29T02:30:38;1.43;;;0.67;;
12228;SDS011;6177;52.402;9.800;2024-03-29T02:33:04;1.23;;;0.57;;
12228;SDS011;6177;52.402;9.800;2024-03-29T02:35:29;0.83;;;0.60;;
12228;SDS011;6177;52.402;9.800;2024-03-29T02:37:56;2.67;;;0.70;;
12228;SDS011;6177;52.402;9.800;2024-03-29T02:40:21;1.67;;;0.50;;
12228;SDS011;6177;52.402;9.800;2024-03-29T02:42:47;0.60;;;0.33;;
12228;SDS011;6177;52.402;9.800;2024-03-29T02:45:14;0.73;;;0.50;;
12228;SDS011;6177;52.402;9.800;2024-03-29T02:47:39;1.17;;;0.57;;
12228;SDS011;6177;52.402;9.800;2024-03-29T02:50:06;0.57;;;0.50;;
12228;SDS011;6177;52.402;9.800;2024-03-29T02:52:34;2.63;;;0.73;;
12228;SDS011;6177;52.402;9.800;2024-03-29T02:54:59;0.83;;;0.40;;
12228;SDS011;6177;52.402;9.800;2024-03-29T02:57:25;0.80;;;0.60;;
12228;SDS011;6177;52.402;9.800;2024-03-29T02:59:50;0.87;;;0.37;;
12228;SDS011;6177;52.402;9.800;2024-03-29T03:02:16;0.83;;;0.33;;
12228;SDS011;6177;52.402;9.800;2024-03-29T03:04:41;2.10;;;0.47;;
12228;SDS011;6177;52.402;9.800;2024-03-29T03:07:07;2.00;;;0.60;;
12228;SDS011;6177;52.402;9.800;2024-03-29T03:09:51;0.97;;;0.40;;
12228;SDS011;6177;52.402;9.800;2024-03-29T03:12:35;1.40;;;0.33;;
12228;SDS011;6177;52.402;9.800;2024-03-29T03:15:00;1.27;;;0.40;;
12228;SDS011;6177;52.402;9.800;2024-03-29T03:17:27;0.93;;;0.50;;
12228;SDS011;6177;52.402;9.800;2024-03-29T03:19:53;0.90;;;0.77;;
12228;SDS011;6177;52.402;9.800;2024-03-29T03:22:18;1.90;;;0.47;;
12228;SDS011;6177;52.402;9.800;2024-03-29T03:24:44;1.43;;;0.60;;
12228;SDS011;6177;52.402;9.800;2024-03-29T03:27:09;2.13;;;0.57;;
12228;SDS011;6177;52.402;9.800;2024-03-29T03:29:35;0.90;;;0.50;;
12228;SDS011;6177;52.402;9.800;2024-03-29T03:32:00;0.40;;;0.40;;
12228;SDS011;6177;52.402;9.800;2024-03-29T03:34:26;0.97;;;0.60;;
12228;SDS011;6177;52.402;9.800;2024-03-29T03:36:52;1.00;;;0.50;;
12228;SDS011;6177;52.402;9.800;2024-03-29T03:39:17;2.10;;;0.70;;
12228;SDS011;6177;52.402;9.800;2024-03-29T03:41:43;1.63;;;0.63;;
12228;SDS011;6177;52.402;9.800;2024-03-29T03:44:08;2.10;;;0.57;;
12228;SDS011;6177;52.402;9.800;2024-03-29T03:46:34;2.00;;;0.50;;
12228;SDS011;6177;52.402;9.800;2024-03-29T03:48:59;1.50;;;0.43;;
12228;SDS011;6177;52.402;9.800;2024-03-29T03:51:25;1.13;;;0.70;;
12228;SDS011;6177;52.402;9.800;2024-03-29T03:53:50;2.07;;;0.57;;
12228;SDS011;6177;52.402;9.800;2024-03-29T03:56:16;3.87;;;0.60;;
12228;SDS011;6177;52.402;9.800;2024-03-29T03:58:43;1.53;;;0.50;;
12228;SDS011;6177;52.402;9.800;2024-03-29T04:01:09;3.03;;;0.73;;
12228;SDS011;6177;52.402;9.800;2024-03-29T04:03:35;1.80;;;0.80;;
12228;SDS011;6177;52.402;9.800;2024-03-29T04:06:03;0.60;;;0.47;;
12228;SDS011;6177;52.402;9.800;2024-03-29T04:08:29;1.93;;;0.73;;
12228;SDS011;6177;52.402;9.800;2024-03-29T04:10:54;1.00;;;0.63;;
12228;SDS011;6177;52.402;9.800;2024-03-29T04:13:20;1.20;;;0.63;;
12228;SDS011;6177;52.402;9.800;2024-03-29T04:15:45;1.17;;;0.47;;
12228;SDS011;6177;52.402;9.800;2024-03-29T04:18:11;1.60;;;0.50;;
12228;SDS011;6177;52.402;9.800;2024-03-29T04:20:36;3.60;;;0.60;;
12228;SDS011;6177;52.402;9.800;2024-03-29T04:23:05;1.70;;;0.57;;
12228;SDS011;6177;52.402;9.800;2024-03-29T04:25:31;1.50;;;0.50;;
12228;SDS011;6177;52.402;9.800;2024-03-29T04:27:58;0.67;;;0.67;;
12228;SDS011;6177;52.402;9.800;2024-03-29T04:30:23;1.20;;;0.43;;
12228;SDS011;6177;52.402;9.800;2024-03-29T04:32:49;0.40;;;0.40;;
12228;SDS011;6177;52.402;9.800;2024-03-29T04:35:14;1.00;;;0.67;;
12228;SDS011;6177;52.402;9.800;2024-03-29T04:37:40;0.60;;;0.53;;
12228;SDS011;6177;52.402;9.800;2024-03-29T04:40:06;1.73;;;0.67;;
12228;SDS011;6177;52.402;9.800;2024-03-29T04:42:31;0.83;;;0.50;;
12228;SDS011;6177;52.402;9.800;2024-03-29T04:44:57;2.00;;;0.50;;
12228;SDS011;6177;52.402;9.800;2024-03-29T04:47:23;1.07;;;0.50;;
12228;SDS011;6177;52.402;9.800;2024-03-29T04:49:48;1.63;;;0.60;;
12228;SDS011;6177;52.402;9.800;2024-03-29T04:52:14;2.40;;;0.40;;
12228;SDS011;6177;52.402;9.800;2024-03-29T04:54:39;1.23;;;0.40;;
12228;SDS011;6177;52.402;9.800;2024-03-29T04:57:05;1.90;;;1.07;;
12228;SDS011;6177;52.402;9.800;2024-03-29T04:59:33;1.20;;;0.70;;
12228;SDS011;6177;52.402;9.800;2024-03-29T05:01:59;0.40;;;0.30;;
12228;SDS011;6177;52.402;9.800;2024-03-29T05:04:25;2.50;;;0.57;;
12228;SDS011;6177;52.402;9.800;2024-03-29T05:06:54;3.80;;;0.50;;
12228;SDS011;6177;52.402;9.800;2024-03-29T05:09:20;2.67;;;0.47;;
12228;SDS011;6177;52.402;9.800;2024-03-29T05:11:46;2.33;;;0.60;;
12228;SDS011;6177;52.402;9.800;2024-03-29T05:14:19;2.47;;;0.60;;
12228;SDS011;6177;52.402;9.800;2024-03-29T05:16:45;1.03;;;0.60;;
12228;SDS011;6177;52.402;9.800;2024-03-29T05:19:12;0.63;;;0.47;;
12228;SDS011;6177;52.402;9.800;2024-03-29T05:21:40;1.87;;;0.77;;
12228;SDS011;6177;52.402;9.800;2024-03-29T05:24:07;2.33;;;1.10;;
12228;SDS011;6177;52.402;9.800;2024-03-29T05:26:33;1.73;;;0.67;;
12228;SDS011;6177;52.402;9.800;2024-03-29T05:28:58;2.90;;;0.70;;
12228;SDS011;6177;52.402;9.800;2024-03-29T05:31:25;0.77;;;0.40;;
12228;SDS011;6177;52.402;9.800;2024-03-29T05:33:50;1.20;;;0.40;;
12228;SDS011;6177;52.402;9.800;2024-03-29T05:36:16;0.70;;;0.40;;
12228;SDS011;6177;52.402;9.800;2024-03-29T05:38:42;0.77;;;0.53;;
12228;SDS011;6177;52.402;9.800;2024-03-29T05:41:07;0.83;;;0.37;;
12228;SDS011;6177;52.402;9.800;2024-03-29T05:43:33;0.40;;;0.40;;
12228;SDS011;6177;52.402;9.800;2024-03-29T05:45:58;2.30;;;0.63;;
12228;SDS011;6177;52.402;9.800;2024-03-29T05:48:26;2.90;;;0.60;;
12228;SDS011;6177;52.402;9.800;2024-03-29T05:50:52;1.77;;;0.73;;
12228;SDS011;6177;52.402;9.800;2024-03-29T05:53:17;1.70;;;0.70;;
12228;SDS011;6177;52.402;9.800;2024-03-29T05:55:43;0.77;;;0.40;;
12228;SDS011;6177;52.402;9.800;2024-03-29T05:58:09;1.27;;;0.63;;
12228;SDS011;6177;52.402;9.800;2024-03-29T06:00:34;0.83;;;0.40;;
12228;SDS011;6177;52.402;9.800;2024-03-29T06:03:00;0.80;;;0.50;;
12228;SDS011;6177;52.402;9.800;2024-03-29T06:05:28;2.50;;;1.00;;
12228;SDS011;6177;52.402;9.800;2024-03-29T06:07:54;2.00;;;0.53;;
12228;SDS011;6177;52.402;9.800;2024-03-29T06:10:20;0.57;;;0.57;;
12228;SDS011;6177;52.402;9.800;2024-03-29T06:12:45;0.80;;;0.70;;
12228;SDS011;6177;52.402;9.800;2024-03-29T06:15:11;0.70;;;0.50;;
12228;SDS011;6177;52.402;9.800;2024-03-29T06:17:55;1.63;;;0.50;;
12228;SDS011;6177;52.402;9.800;2024-03-29T06:20:20;0.63;;;0.60;;
12228;SDS011;6177;52.402;9.800;2024-03-29T06:22:46;1.17;;;0.40;;
12228;SDS011;6177;52.402;9.800;2024-03-29T06:25:12;1.73;;;0.53;;
12228;SDS011;6177;52.402;9.800;2024-03-29T06:27:37;2.70;;;0.60;;
12228;SDS011;6177;52.402;9.800;2024-03-29T06:30:03;0.73;;;0.37;;
12228;SDS011;6177;52.402;9.800;2024-03-29T06:32:30;0.53;;;0.53;;
12228;SDS011;6177;52.402;9.800;2024-03-29T06:34:56;1.23;;;0.53;;
12228;SDS011;6177;52.402;9.800;2024-03-29T06:37:22;1.97;;;0.50;;
12228;SDS011;6177;52.402;9.800;2024-03-29T06:39:50;1.10;;;0.60;;
12228;SDS011;6177;52.402;9.800;2024-03-29T06:42:16;0.70;;;0.33;;
12228;SDS011;6177;52.402;9.800;2024-03-29T06:44:42;2.23;;;0.53;;
12228;SDS011;6177;52.402;9.800;2024-03-29T06:47:08;1.03;;;0.40;;
12228;SDS011;6177;52.402;9.800;2024-03-29T06:49:33;2.93;;;0.70;;
12228;SDS011;6177;52.402;9.800;2024-03-29T06:51:59;0.93;;;0.40;;
12228;SDS011;6177;52.402;9.800;2024-03-29T06:54:29;0.30;;;0.30;;
12228;SDS011;6177;52.402;9.800;2024-03-29T06:56:55;0.77;;;0.70;;
12228;SDS011;6177;52.402;9.800;2024-03-29T06:59:21;0.77;;;0.60;;
12228;SDS011;6177;52.402;9.800;2024-03-29T07:01:47;1.13;;;0.40;;
12228;SDS011;6177;52.402;9.800;2024-03-29T07:04:17;1.13;;;0.40;;
12228;SDS011;6177;52.402;9.800;2024-03-29T07:06:46;2.00;;;0.40;;
12228;SDS011;6177;52.402;9.800;2024-03-29T07:09:20;0.70;;;0.57;;
12228;SDS011;6177;52.402;9.800;2024-03-29T07:11:47;2.50;;;0.60;;
12228;SDS011;6177;52.402;9.800;2024-03-29T07:14:14;1.00;;;0.60;;
12228;SDS011;6177;52.402;9.800;2024-03-29T07:16:40;1.60;;;0.80;;
12228;SDS011;6177;52.402;9.800;2024-03-29T07:19:06;1.47;;;0.60;;
12228;SDS011;6177;52.402;9.800;2024-03-29T07:21:32;0.83;;;0.40;;
12228;SDS011;6177;52.402;9.800;2024-03-29T07:23:57;1.70;;;0.70;;
12228;SDS011;6177;52.402;9.800;2024-03-29T07:26:23;1.27;;;0.63;;
12228;SDS011;6177;52.402;9.800;2024-03-29T07:28:48;1.50;;;0.53;;
12228;SDS011;6177;52.402;9.800;2024-03-29T07:31:14;1.60;;;0.63;;
12228;SDS011;6177;52.402;9.800;2024-03-29T07:33:40;1.30;;;0.60;;
12228;SDS011;6177;52.402;9.800;2024-03-29T07:36:06;1.30;;;0.77;;
12228;SDS011;6177;52.402;9.800;2024-03-29T07:38:33;1.00;;;0.77;;
12228;SDS011;6177;52.402;9.800;2024-03-29T07:40:58;1.90;;;0.67;;
12228;SDS011;6177;52.402;9.800;2024-03-29T07:43:24;1.47;;;0.80;;
12228;SDS011;6177;52.402;9.800;2024-03-29T07:45:49;0.60;;;0.57;;
12228;SDS011;6177;52.402;9.800;2024-03-29T07:48:18;1.20;;;0.70;;
12228;SDS011;6177;52.402;9.800;2024-03-29T07:50:45;1.33;;;0.60;;
12228;SDS011;6177;52.402;9.800;2024-03-29T07:53:11;1.60;;;0.93;;
12228;SDS011;6177;52.402;9.800;2024-03-29T07:55:37;2.47;;;1.03;;
12228;SDS011;6177;52.402;9.800;2024-03-29T07:58:03;1.23;;;1.00;;
12228;SDS011;6177;52.402;9.800;2024-03-29T08:00:33;1.73;;;0.90;;
12228;SDS011;6177;52.402;9.800;2024-03-29T08:02:59;1.07;;;0.90;;
12228;SDS011;6177;52.402;9.800;2024-03-29T08:05:26;1.27;;;0.80;;
12228;SDS011;6177;52.402;9.800;2024-03-29T08:07:52;1.07;;;0.97;;
12228;SDS011;6177;52.402;9.800;2024-03-29T08:10:18;0.93;;;0.60;;
12228;SDS011;6177;52.402;9.800;2024-03-29T08:12:43;1.00;;;0.80;;
12228;SDS011;6177;52.402;9.800;2024-03-29T08:15:09;3.23;;;0.80;;
12228;SDS011;6177;52.402;9.800;2024-03-29T08:17:34;1.00;;;0.93;;
12228;SDS011;6177;52.402;9.800;2024-03-29T08:20:01;1.37;;;0.53;;
12228;SDS011;6177;52.402;9.800;2024-03-29T08:22:26;1.93;;;0.67;;
12228;SDS011;6177;52.402;9.800;2024-03-29T08:24:53;0.77;;;0.60;;
12228;SDS011;6177;52.402;9.800;2024-03-29T08:27:19;0.70;;;0.70;;
12228;SDS011;6177;52.402;9.800;2024-03-29T08:29:45;1.33;;;0.60;;
12228;SDS011;6177;52.402;9.800;2024-03-29T08:32:11;0.60;;;0.60;;
12228;SDS011;6177;52.402;9.800;2024-03-29T08:34:38;0.93;;;0.50;;
12228;SDS011;6177;52.402;9.800;2024-03-29T08:37:03;0.67;;;0.60;;
12228;SDS011;6177;52.402;9.800;2024-03-29T08:39:29;0.60;;;0.60;;
12228;SDS011;6177;52.402;9.800;2024-03-29T08:41:55;1.60;;;0.60;;
12228;SDS011;6177;52.402;9.800;2024-03-29T08:44:21;1.53;;;0.67;;
12228;SDS011;6177;52.402;9.800;2024-03-29T08:46:47;0.50;;;0.50;;
12228;SDS011;6177;52.402;9.800;2024-03-29T08:49:12;0.50;;;0.50;;
12228;SDS011;6177;52.402;9.800;2024-03-29T08:51:38;1.50;;;0.67;;
12228;SDS011;6177;52.402;9.800;2024-03-29T08:54:03;1.50;;;0.80;;
12228;SDS011;6177;52.402;9.800;2024-03-29T08:56:33;1.00;;;0.97;;
12228;SDS011;6177;52.402;9.800;2024-03-29T08:59:02;0.60;;;0.60;;
12228;SDS011;6177;52.402;9.800;2024-03-29T09:01:33;0.57;;;0.40;;
12228;SDS011;6177;52.402;9.800;2024-03-29T09:03:59;0.30;;;0.30;;
12228;SDS011;6177;52.402;9.800;2024-03-29T09:06:24;0.80;;;0.50;;
12228;SDS011;6177;52.402;9.800;2024-03-29T09:08:50;0.57;;;0.40;;
12228;SDS011;6177;52.402;9.800;2024-03-29T09:11:15;0.70;;;0.40;;
12228;SDS011;6177;52.402;9.800;2024-03-29T09:13:41;0.40;;;0.40;;
12228;SDS011;6177;52.402;9.800;2024-03-29T09:16:07;0.53;;;0.40;;
12228;SDS011;6177;52.402;9.800;2024-03-29T09:18:33;1.27;;;0.40;;
12228;SDS011;6177;52.402;9.800;2024-03-29T09:20:59;0.87;;;0.60;;
12228;SDS011;6177;52.402;9.800;2024-03-29T09:23:25;0.40;;;0.40;;
12228;SDS011;6177;52.402;9.800;2024-03-29T09:25:53;0.67;;;0.57;;
12228;SDS011;6177;52.402;9.800;2024-03-29T09:28:19;0.30;;;0.30;;
12228;SDS011;6177;52.402;9.800;2024-03-29T09:30:46;1.10;;;0.30;;
12228;SDS011;6177;52.402;9.800;2024-03-29T09:33:12;0.83;;;0.60;;
12228;SDS011;6177;52.402;9.800;2024-03-29T09:35:38;0.97;;;0.40;;
12228;SDS011;6177;52.402;9.800;2024-03-29T09:38:04;0.60;;;0.40;;
12228;SDS011;6177;52.402;9.800;2024-03-29T09:40:29;0.50;;;0.30;;
12228;SDS011;6177;52.402;9.800;2024-03-29T09:43:01;0.93;;;0.30;;
12228;SDS011;6177;52.402;9.800;2024-03-29T09:45:30;0.93;;;0.50;;
12228;SDS011;6177;52.402;9.800;2024-03-29T09:48:03;0.73;;;0.50;;
12228;SDS011;6177;52.402;9.800;2024-03-29T09:50:30;0.60;;;0.40;;
12228;SDS011;6177;52.402;9.800;2024-03-29T09:52:56;1.77;;;0.50;;
12228;SDS011;6177;52.402;9.800;2024-03-29T09:55:23;1.13;;;0.60;;
12228;SDS011;6177;52.402;9.800;2024-03-29T09:57:49;0.43;;;0.40;;
12228;SDS011;6177;52.402;9.800;2024-03-29T10:00:14;0.50;;;0.50;;
12228;SDS011;6177;52.402;9.800;2024-03-29T10:02:40;0.40;;;0.40;;
12228;SDS011;6177;52.402;9.800;2024-03-29T10:05:06;0.70;;;0.43;;
12228;SDS011;6177;52.402;9.800;2024-03-29T10:07:33;0.50;;;0.50;;
12228;SDS011;6177;52.402;9.800;2024-03-29T10:10:01;0.60;;;0.40;;
12228;SDS011;6177;52.402;9.800;2024-03-29T10:12:28;0.60;;;0.40;;
12228;SDS011;6177;52.402;9.800;2024-03-29T10:14:54;0.70;;;0.47;;
12228;SDS011;6177;52.402;9.800;2024-03-29T10:17:31;1.40;;;0.60;;
12228;SDS011;6177;52.402;9.800;2024-03-29T10:20:03;0.47;;;0.47;;
12228;SDS011;6177;52.402;9.800;2024-03-29T10:22:35;0.33;;;0.33;;
12228;SDS011;6177;52.402;9.800;2024-03-29T10:25:05;0.40;;;0.40;;
12228;SDS011;6177;52.402;9.800;2024-03-29T10:27:31;1.07;;;0.30;;
12228;SDS011;6177;52.402;9.800;2024-03-29T10:29:57;0.47;;;0.20;;
12228;SDS011;6177;52.402;9.800;2024-03-29T10:32:22;0.40;;;0.40;;
12228;SDS011;6177;52.402;9.800;2024-03-29T10:34:48;1.00;;;0.38;;
12228;SDS011;6177;52.402;9.800;2024-03-29T10:37:14;0.30;;;0.30;;
12228;SDS011;6177;52.402;9.800;2024-03-29T10:39:44;0.67;;;0.47;;
12228;SDS011;6177;52.402;9.800;2024-03-29T10:42:10;0.30;;;0.30;;
12228;SDS011;6177;52.402;9.800;2024-03-29T10:44:38;1.48;;;0.60;;
12228;SDS011;6177;52.402;9.800;2024-03-29T10:47:04;0.50;;;0.50;;
12228;SDS011;6177;52.402;9.800;2024-03-29T10:49:31;0.32;;;0.30;;
12228;SDS011;6177;52.402;9.800;2024-03-29T10:51:59;1.02;;;0.68;;
12228;SDS011;6177;52.402;9.800;2024-03-29T10:54:25;0.60;;;0.60;;
12228;SDS011;6177;52.402;9.800;2024-03-29T10:56:54;0.37;;;0.37;;
12228;SDS011;6177;52.402;9.800;2024-03-29T10:59:34;0.30;;;0.30;;
12228;SDS011;6177;52.402;9.800;2024-03-29T11:02:03;0.70;;;0.40;;
12228;SDS011;6177;52.402;9.800;2024-03-29T11:04:37;1.33;;;0.70;;
12228;SDS011;6177;52.402;9.800;2024-03-29T11:07:06;1.13;;;0.47;;
12228;SDS011;6177;52.402;9.800;2024-03-29T11:09:33;0.60;;;0.30;;
12228;SDS011;6177;52.402;9.800;2024-03-29T11:12:01;0.60;;;0.60;;
12228;SDS011;6177;52.402;9.800;2024-03-29T11:14:29;0.60;;;0.60;;
12228;SDS011;6177;52.402;9.800;2024-03-29T11:16:59;0.53;;;0.30;;
12228;SDS011;6177;52.402;9.800;2024-03-29T11:19:25;0.40;;;0.40;;
12228;SDS011;6177;52.402;9.800;2024-03-29T11:21:52;0.40;;;0.40;;
12228;SDS011;6177;52.402;9.800;2024-03-29T11:24:18;0.60;;;0.60;;
12228;SDS011;6177;52.402;9.800;2024-03-29T11:26:45;0.75;;;0.50;;
12228;SDS011;6177;52.402;9.800;2024-03-29T11:29:20;0.47;;;0.47;;
12228;SDS011;6177;52.402;9.800;2024-03-29T11:31:47;0.50;;;0.50;;
12228;SDS011;6177;52.402;9.800;2024-03-29T11:34:14;0.30;;;0.30;;
12228;SDS011;6177;52.402;9.800;2024-03-29T11:36:44;0.45;;;0.45;;
12228;SDS011;6177;52.402;9.800;2024-03-29T11:39:19;0.47;;;0.47;;
12228;SDS011;6177;52.402;9.800;2024-03-29T11:41:48;0.40;;;0.40;;
12228;SDS011;6177;52.402;9.800;2024-03-29T11:44:14;0.30;;;0.30;;
12228;SDS011;6177;52.402;9.800;2024-03-29T11:46:40;0.40;;;0.40;;
12228;SDS011;6177;52.402;9.800;2024-03-29T11:49:05;0.75;;;0.40;;
12228;SDS011;6177;52.402;9.800;2024-03-29T11:51:31;0.80;;;0.32;;
12228;SDS011;6177;52.402;9.800;2024-03-29T11:53:57;0.40;;;0.30;;
12228;SDS011;6177;52.402;9.800;2024-03-29T11:56:22;0.25;;;0.25;;
12228;SDS011;6177;52.402;9.800;2024-03-29T11:58:48;0.57;;;0.30;;
12228;SDS011;6177;52.402;9.800;2024-03-29T12:01:14;0.47;;;0.47;;
12228;SDS011;6177;52.402;9.800;2024-03-29T12:03:40;0.27;;;0.27;;
12228;SDS011;6177;52.402;9.800;2024-03-29T12:06:06;0.45;;;0.20;;
12228;SDS011;6177;52.402;9.800;2024-03-29T12:08:33;0.40;;;0.30;;
12228;SDS011;6177;52.402;9.800;2024-03-29T12:10:59;0.32;;;0.20;;
12228;SDS011;6177;52.402;9.800;2024-03-29T12:13:25;0.17;;;0.17;;
12228;SDS011;6177;52.402;9.800;2024-03-29T12:15:51;0.20;;;0.20;;
12228;SDS011;6177;52.402;9.800;2024-03-29T12:18:18;0.30;;;0.30;;
12228;SDS011;6177;52.402;9.800;2024-03-29T12:20:45;0.17;;;0.17;;
12228;SDS011;6177;52.402;9.800;2024-03-29T12:23:11;0.95;;;0.32;;
12228;SDS011;6177;52.402;9.800;2024-03-29T12:25:38;0.10;;;0.10;;
12228;SDS011;6177;52.402;9.800;2024-03-29T12:28:04;0.30;;;0.20;;
12228;SDS011;6177;52.402;9.800;2024-03-29T12:30:31;0.28;;;0.20;;
12228;SDS011;6177;52.402;9.800;2024-03-29T12:33:04;0.63;;;0.20;;
12228;SDS011;6177;52.402;9.800;2024-03-29T12:35:32;0.20;;;0.20;;
12228;SDS011;6177;52.402;9.800;2024-03-29T12:37:58;0.22;;;0.22;;
12228;SDS011;6177;52.402;9.800;2024-03-29T12:40:25;0.20;;;0.20;;
12228;SDS011;6177;52.402;9.800;2024-03-29T12:42:51;0.20;;;0.20;;
12228;SDS011;6177;52.402;9.800;2024-03-29T12:45:17;0.23;;;0.20;;
12228;SDS011;6177;52.402;9.800;2024-03-29T12:47:44;0.20;;;0.20;;
12228;SDS011;6177;52.402;9.800;2024-03-29T12:50:12;0.43;;;0.30;;
12228;SDS011;6177;52.402;9.800;2024-03-29T12:52:42;0.63;;;0.10;;
12228;SDS011;6177;52.402;9.800;2024-03-29T12:55:07;0.22;;;0.22;;
12228;SDS011;6177;52.402;9.800;2024-03-29T12:57:36;0.30;;;0.30;;
12228;SDS011;6177;52.402;9.800;2024-03-29T13:00:03;0.20;;;0.20;;
12228;SDS011;6177;52.402;9.800;2024-03-29T13:02:37;0.25;;;0.25;;
12228;SDS011;6177;52.402;9.800;2024-03-29T13:05:03;0.20;;;0.20;;
12228;SDS011;6177;52.402;9.800;2024-03-29T13:07:32;0.20;;;0.20;;
12228;SDS011;6177;52.402;9.800;2024-03-29T13:10:01;0.20;;;0.20;;
12228;SDS011;6177;52.402;9.800;2024-03-29T13:12:38;0.13;;;0.13;;
12228;SDS011;6177;52.402;9.800;2024-03-29T13:15:27;0.10;;;0.10;;
12228;SDS011;6177;52.402;9.800;2024-03-29T13:17:55;0.30;;;0.30;;
12228;SDS011;6177;52.402;9.800;2024-03-29T13:20:21;0.10;;;0.10;;
12228;SDS011;6177;52.402;9.800;2024-03-29T13:22:48;0.20;;;0.20;;
12228;SDS011;6177;52.402;9.800;2024-03-29T13:25:21;0.30;;;0.20;;
12228;SDS011;6177;52.402;9.800;2024-03-29T13:27:48;0.30;;;0.30;;
12228;SDS011;6177;52.402;9.800;2024-03-29T13:30:18;0.25;;;0.25;;
12228;SDS011;6177;52.402;9.800;2024-03-29T13:32:45;0.57;;;0.57;;
12228;SDS011;6177;52.402;9.800;2024-03-29T13:35:11;0.38;;;0.38;;
12228;SDS011;6177;52.402;9.800;2024-03-29T13:37:40;0.40;;;0.40;;
12228;SDS011;6177;52.402;9.800;2024-03-29T13:40:13;0.20;;;0.20;;
12228;SDS011;6177;52.402;9.800;2024-03-29T13:42:39;0.30;;;0.30;;
12228;SDS011;6177;52.402;9.800;2024-03-29T13:45:06;0.52;;;0.30;;
12228;SDS011;6177;52.402;9.800;2024-03-29T13:47:33;0.30;;;0.30;;
12228;SDS011;6177;52.402;9.800;2024-03-29T13:49:59;0.25;;;0.20;;
12228;SDS011;6177;52.402;9.800;2024-03-29T13:52:25;0.20;;;0.20;;
12228;SDS011;6177;52.402;9.800;2024-03-29T13:54:53;0.30;;;0.30;;
12228;SDS011;6177;52.402;9.800;2024-03-29T13:57:19;0.35;;;0.20;;
12228;SDS011;6177;52.402;9.800;2024-03-29T13:59:45;0.52;;;0.40;;
12228;SDS011;6177;52.402;9.800;2024-03-29T14:02:11;0.20;;;0.20;;
12228;SDS011;6177;52.402;9.800;2024-03-29T14:04:38;0.40;;;0.40;;
12228;SDS011;6177;52.402;9.800;2024-03-29T14:07:04;0.40;;;0.40;;
12228;SDS011;6177;52.402;9.800;2024-03-29T14:09:37;0.50;;;0.32;;
12228;SDS011;6177;52.402;9.800;2024-03-29T14:12:04;1.00;;;0.30;;
12228;SDS011;6177;52.402;9.800;2024-03-29T14:14:30;0.30;;;0.30;;
12228;SDS011;6177;52.402;9.800;2024-03-29T14:16:56;0.45;;;0.40;;
12228;SDS011;6177;52.402;9.800;2024-03-29T14:19:21;0.43;;;0.30;;
12228;SDS011;6177;52.402;9.800;2024-03-29T14:21:47;0.35;;;0.35;;
12228;SDS011;6177;52.402;9.800;2024-03-29T14:24:12;0.40;;;0.40;;
12228;SDS011;6177;52.402;9.800;2024-03-29T14:26:38;0.20;;;0.20;;
12228;SDS011;6177;52.402;9.800;2024-03-29T14:29:04;0.20;;;0.20;;
12228;SDS011;6177;52.402;9.800;2024-03-29T14:31:32;0.32;;;0.30;;
12228;SDS011;6177;52.402;9.800;2024-03-29T14:33:58;0.20;;;0.20;;
12228;SDS011;6177;52.402;9.800;2024-03-29T14:36:23;0.20;;;0.20;;
12228;SDS011;6177;52.402;9.800;2024-03-29T14:38:49;0.30;;;0.30;;
12228;SDS011;6177;52.402;9.800;2024-03-29T14:41:15;0.22;;;0.22;;
12228;SDS011;6177;52.402;9.800;2024-03-29T14:43:41;0.20;;;0.20;;
12228;SDS011;6177;52.402;9.800;2024-03-29T14:46:09;0.28;;;0.28;;
12228;SDS011;6177;52.402;9.800;2024-03-29T14:48:34;0.40;;;0.40;;
12228;SDS011;6177;52.402;9.800;2024-03-29T14:51:00;0.77;;;0.40;;
12228;SDS011;6177;52.402;9.800;2024-03-29T14:53:25;0.30;;;0.30;;
12228;SDS011;6177;52.402;9.800;2024-03-29T14:55:51;0.80;;;0.30;;
12228;SDS011;6177;52.402;9.800;2024-03-29T14:58:17;0.20;;;0.20;;